sensor_id;sensor_type;location;lat;lon;timestamp;temperature;humidity
23769;DHT22;12064;50.890;5.424;2023-03-31T00:02:56;18.60;86.00
23769;DHT22;12064;50.890;5.424;2023-03-31T00:11:48;18.50;86.80
23769;DHT22;12064;50.890;5.424;2023-03-31T00:20:39;18.50;86.00
23769;DHT22;12064;50.890;5.424;2023-03-31T00:29:32;18.50;86.00
23769;DHT22;12064;50.890;5.424;2023-03-31T00:38:25;18.50;86.30
23769;DHT22;12064;50.890;5.424;2023-03-31T00:47:19;18.50;86.40
23769;DHT22;12064;50.890;5.424;2023-03-31T00:56:14;18.50;86.50
23769;DHT22;12064;50.890;5.424;2023-03-31T01:05:06;18.40;86.60
23769;DHT22;12064;50.890;5.424;2023-03-31T01:13:58;18.40;86.70
23769;DHT22;12064;50.890;5.424;2023-03-31T01:59:33;18.30;87.10
23769;DHT22;12064;50.890;5.424;2023-03-31T02:08:29;18.30;87.30
23769;DHT22;12064;50.890;5.424;2023-03-31T02:17:24;18.30;87.30
23769;DHT22;12064;50.890;5.424;2023-03-31T02:26:28;18.30;87.30
23769;DHT22;12064;50.890;5.424;2023-03-31T02:35:20;18.30;87.50
23769;DHT22;12064;50.890;5.424;2023-03-31T02:44:12;18.30;87.60
23769;DHT22;12064;50.890;5.424;2023-03-31T02:53:25;18.30;87.50
23769;DHT22;12064;50.890;5.424;2023-03-31T03:20:35;18.20;87.70
23769;DHT22;12064;50.890;5.424;2023-03-31T03:29:26;18.10;87.50
23769;DHT22;12064;50.890;5.424;2023-03-31T03:38:17;18.20;87.60
23769;DHT22;12064;50.890;5.424;2023-03-31T03:47:07;18.20;87.70
23769;DHT22;12064;50.890;5.424;2023-03-31T03:55:58;18.20;87.90
23769;DHT22;12064;50.890;5.424;2023-03-31T04:04:49;18.10;87.80
23769;DHT22;12064;50.890;5.424;2023-03-31T04:13:39;18.20;87.90
23769;DHT22;12064;50.890;5.424;2023-03-31T04:22:31;18.20;87.90
23769;DHT22;12064;50.890;5.424;2023-03-31T04:31:25;18.20;87.80
23769;DHT22;12064;50.890;5.424;2023-03-31T04:40:16;18.00;88.90
23769;DHT22;12064;50.890;5.424;2023-03-31T04:49:07;18.00;87.80
23769;DHT22;12064;50.890;5.424;2023-03-31T04:57:58;18.10;87.40
23769;DHT22;12064;50.890;5.424;2023-03-31T05:06:48;18.10;87.00
23769;DHT22;12064;50.890;5.424;2023-03-31T05:15:40;18.00;86.80
23769;DHT22;12064;50.890;5.424;2023-03-31T05:24:30;18.00;87.40
23769;DHT22;12064;50.890;5.424;2023-03-31T05:33:21;17.90;87.60
23769;DHT22;12064;50.890;5.424;2023-03-31T05:42:12;17.90;87.80
23769;DHT22;12064;50.890;5.424;2023-03-31T05:51:03;17.90;87.90
23769;DHT22;12064;50.890;5.424;2023-03-31T05:59:54;18.00;87.50
23769;DHT22;12064;50.890;5.424;2023-03-31T06:08:46;17.90;87.40
23769;DHT22;12064;50.890;5.424;2023-03-31T06:17:37;18.00;87.20
23769;DHT22;12064;50.890;5.424;2023-03-31T06:26:28;18.00;87.00
23769;DHT22;12064;50.890;5.424;2023-03-31T06:35:18;17.90;87.10
23769;DHT22;12064;50.890;5.424;2023-03-31T06:44:09;18.00;87.00
23769;DHT22;12064;50.890;5.424;2023-03-31T06:53:00;17.90;87.00
23769;DHT22;12064;50.890;5.424;2023-03-31T07:01:51;17.90;87.00
23769;DHT22;12064;50.890;5.424;2023-03-31T07:10:41;17.90;87.70
23769;DHT22;12064;50.890;5.424;2023-03-31T07:19:32;17.90;86.80
23769;DHT22;12064;50.890;5.424;2023-03-31T07:28:28;17.90;86.80
23769;DHT22;12064;50.890;5.424;2023-03-31T07:37:19;18.00;86.70
23769;DHT22;12064;50.890;5.424;2023-03-31T07:46:18;18.10;86.40
23769;DHT22;12064;50.890;5.424;2023-03-31T07:55:10;18.00;86.30
23769;DHT22;12064;50.890;5.424;2023-03-31T08:04:01;18.10;86.40
23769;DHT22;12064;50.890;5.424;2023-03-31T08:12:52;18.20;86.10
23769;DHT22;12064;50.890;5.424;2023-03-31T08:21:43;18.20;85.90
23769;DHT22;12064;50.890;5.424;2023-03-31T08:30:35;18.20;85.80
23769;DHT22;12064;50.890;5.424;2023-03-31T08:39:26;18.10;85.80
23769;DHT22;12064;50.890;5.424;2023-03-31T08:48:38;18.10;85.90
23769;DHT22;12064;50.890;5.424;2023-03-31T08:57:46;18.10;85.90
23769;DHT22;12064;50.890;5.424;2023-03-31T09:06:47;18.10;85.70
23769;DHT22;12064;50.890;5.424;2023-03-31T09:15:51;18.10;85.70
23769;DHT22;12064;50.890;5.424;2023-03-31T09:25:09;18.10;85.60
23769;DHT22;12064;50.890;5.424;2023-03-31T09:34:12;18.10;85.60
23769;DHT22;12064;50.890;5.424;2023-03-31T09:43:06;18.20;85.60
23769;DHT22;12064;50.890;5.424;2023-03-31T09:52:08;18.20;85.60
23769;DHT22;12064;50.890;5.424;2023-03-31T10:01:04;18.20;85.50
23769;DHT22;12064;50.890;5.424;2023-03-31T10:09:59;18.20;85.50
23769;DHT22;12064;50.890;5.424;2023-03-31T10:18:50;18.20;85.30
23769;DHT22;12064;50.890;5.424;2023-03-31T10:27:40;18.30;85.20
23769;DHT22;12064;50.890;5.424;2023-03-31T10:36:32;18.30;85.00
23769;DHT22;12064;50.890;5.424;2023-03-31T10:45:26;18.40;84.60
23769;DHT22;12064;50.890;5.424;2023-03-31T10:54:17;18.50;84.40
23769;DHT22;12064;50.890;5.424;2023-03-31T11:12:32;18.40;84.60
23769;DHT22;12064;50.890;5.424;2023-03-31T11:21:37;18.40;84.50
23769;DHT22;12064;50.890;5.424;2023-03-31T11:30:37;18.40;84.60
23769;DHT22;12064;50.890;5.424;2023-03-31T11:48:56;18.50;84.40
23769;DHT22;12064;50.890;5.424;2023-03-31T11:58:04;18.50;84.40
23769;DHT22;12064;50.890;5.424;2023-03-31T12:07:02;18.40;84.40
23769;DHT22;12064;50.890;5.424;2023-03-31T12:16:03;18.40;84.50
23769;DHT22;12064;50.890;5.424;2023-03-31T12:24:54;18.40;84.30
23769;DHT22;12064;50.890;5.424;2023-03-31T12:33:58;18.40;84.30
23769;DHT22;12064;50.890;5.424;2023-03-31T13:01:31;18.30;84.50
23769;DHT22;12064;50.890;5.424;2023-03-31T13:10:27;18.40;84.50
23769;DHT22;12064;50.890;5.424;2023-03-31T13:19:35;18.30;84.70
23769;DHT22;12064;50.890;5.424;2023-03-31T13:28:46;18.30;85.10
23769;DHT22;12064;50.890;5.424;2023-03-31T14:14:40;18.60;83.80
23769;DHT22;12064;50.890;5.424;2023-03-31T14:23:54;18.70;83.90
23769;DHT22;12064;50.890;5.424;2023-03-31T14:33:03;18.60;84.00
23769;DHT22;12064;50.890;5.424;2023-03-31T14:42:06;18.60;84.10
23769;DHT22;12064;50.890;5.424;2023-03-31T14:51:01;18.60;84.30
23769;DHT22;12064;50.890;5.424;2023-03-31T14:59:53;18.60;84.10
23769;DHT22;12064;50.890;5.424;2023-03-31T15:08:44;18.70;83.90
23769;DHT22;12064;50.890;5.424;2023-03-31T15:17:41;18.60;84.20
23769;DHT22;12064;50.890;5.424;2023-03-31T15:26:36;18.60;84.10
23769;DHT22;12064;50.890;5.424;2023-03-31T15:35:31;18.30;83.90
23769;DHT22;12064;50.890;5.424;2023-03-31T16:02:37;18.70;83.80
23769;DHT22;12064;50.890;5.424;2023-03-31T16:11:43;18.70;83.70
23769;DHT22;12064;50.890;5.424;2023-03-31T16:20:37;18.70;83.90
23769;DHT22;12064;50.890;5.424;2023-03-31T16:29:30;18.60;84.00
23769;DHT22;12064;50.890;5.424;2023-03-31T16:38:22;18.60;83.80
23769;DHT22;12064;50.890;5.424;2023-03-31T16:47:13;18.60;83.70
23769;DHT22;12064;50.890;5.424;2023-03-31T16:56:05;18.70;83.80
23769;DHT22;12064;50.890;5.424;2023-03-31T17:04:59;18.60;83.70
23769;DHT22;12064;50.890;5.424;2023-03-31T17:13:50;18.60;83.80
23769;DHT22;12064;50.890;5.424;2023-03-31T17:22:43;18.60;83.80
23769;DHT22;12064;50.890;5.424;2023-03-31T17:31:34;18.50;84.20
23769;DHT22;12064;50.890;5.424;2023-03-31T17:40:25;18.50;84.30
23769;DHT22;12064;50.890;5.424;2023-03-31T17:49:15;18.50;84.50
23769;DHT22;12064;50.890;5.424;2023-03-31T17:58:07;18.50;84.50
23769;DHT22;12064;50.890;5.424;2023-03-31T18:06:58;18.50;84.60
23769;DHT22;12064;50.890;5.424;2023-03-31T18:15:50;18.40;84.90
23769;DHT22;12064;50.890;5.424;2023-03-31T18:24:42;18.40;85.00
23769;DHT22;12064;50.890;5.424;2023-03-31T18:33:33;18.30;85.30
23769;DHT22;12064;50.890;5.424;2023-03-31T18:42:24;18.40;85.20
23769;DHT22;12064;50.890;5.424;2023-03-31T18:51:15;18.30;86.10
23769;DHT22;12064;50.890;5.424;2023-03-31T19:00:07;18.30;87.30
23769;DHT22;12064;50.890;5.424;2023-03-31T19:08:59;18.30;87.10
23769;DHT22;12064;50.890;5.424;2023-03-31T19:17:50;18.30;87.30
23769;DHT22;12064;50.890;5.424;2023-03-31T19:26:41;18.30;87.00
23769;DHT22;12064;50.890;5.424;2023-03-31T19:35:33;18.30;87.40
23769;DHT22;12064;50.890;5.424;2023-03-31T19:44:23;18.30;87.40
23769;DHT22;12064;50.890;5.424;2023-03-31T19:53:14;18.30;87.20
23769;DHT22;12064;50.890;5.424;2023-03-31T20:02:05;18.20;87.40
23769;DHT22;12064;50.890;5.424;2023-03-31T20:10:59;18.20;87.50
23769;DHT22;12064;50.890;5.424;2023-03-31T20:19:50;18.20;87.40
23769;DHT22;12064;50.890;5.424;2023-03-31T20:28:41;18.20;87.60
23769;DHT22;12064;50.890;5.424;2023-03-31T20:37:32;18.20;87.60
23769;DHT22;12064;50.890;5.424;2023-03-31T20:46:23;18.20;88.10
23769;DHT22;12064;50.890;5.424;2023-03-31T20:55:14;18.20;88.00
23769;DHT22;12064;50.890;5.424;2023-03-31T21:04:07;18.10;88.00
23769;DHT22;12064;50.890;5.424;2023-03-31T21:12:58;18.10;88.20
23769;DHT22;12064;50.890;5.424;2023-03-31T21:21:49;18.20;88.10
23769;DHT22;12064;50.890;5.424;2023-03-31T21:30:54;18.10;88.20
23769;DHT22;12064;50.890;5.424;2023-03-31T21:39:45;18.10;88.40
23769;DHT22;12064;50.890;5.424;2023-03-31T21:48:36;18.10;88.40
23769;DHT22;12064;50.890;5.424;2023-03-31T21:57:26;18.00;88.60
23769;DHT22;12064;50.890;5.424;2023-03-31T22:06:18;18.00;88.90
23769;DHT22;12064;50.890;5.424;2023-03-31T22:15:09;18.00;89.10
23769;DHT22;12064;50.890;5.424;2023-03-31T22:24:00;18.00;89.20
23769;DHT22;12064;50.890;5.424;2023-03-31T22:32:51;18.00;89.30
23769;DHT22;12064;50.890;5.424;2023-03-31T22:41:42;18.00;89.60
23769;DHT22;12064;50.890;5.424;2023-03-31T22:50:33;17.90;89.80
23769;DHT22;12064;50.890;5.424;2023-03-31T22:59:24;17.90;90.00
23769;DHT22;12064;50.890;5.424;2023-03-31T23:08:15;17.90;90.00
23769;DHT22;12064;50.890;5.424;2023-03-31T23:17:05;17.90;90.00
23769;DHT22;12064;50.890;5.424;2023-03-31T23:26:00;17.80;90.10
23769;DHT22;12064;50.890;5.424;2023-03-31T23:34:51;17.80;90.20
23769;DHT22;12064;50.890;5.424;2023-03-31T23:43:41;17.80;90.20
23769;DHT22;12064;50.890;5.424;2023-03-31T23:52:32;17.80;90.30
